Time;durP1;ratioP1;P1;durP2;ratioP2;P2;SDS_P1;SDS_P2;PMS_P1;PMS_P2;Temp;Humidity;BMP_temperature;BMP_pressure;BME280_temperature;BME280_humidity;BME280_pressure;Samples;Min_cycle;Max_cycle;Signal;HPM_P1;HPM_P2
2022/09/03 00:02:04;;;;;;;2.40;0.40;;;17.80;99.90;;;;;;5021177;28;20119;-64
2022/09/03 00:04:39;;;;;;;2.88;0.70;;;17.80;99.90;;;;;;5016732;28;20068;-64
2022/09/03 00:07:10;;;;;;;2.90;0.55;;;17.90;99.90;;;;;;5018683;28;20384;-63
2022/09/03 00:09:46;;;;;;;1.73;0.68;;;17.90;99.90;;;;;;5027826;28;20384;-64
2022/09/03 00:12:23;;;;;;;2.05;0.80;;;17.70;99.90;;;;;;5050206;28;20402;-64
2022/09/03 00:14:57;;;;;;;3.47;0.60;;;17.60;99.90;;;;;;5054100;28;20040;-64
2022/09/03 00:17:28;;;;;;;2.45;0.50;;;17.50;99.90;;;;;;5040044;28;20098;-63
2022/09/03 00:19:57;;;;;;;2.67;0.63;;;17.70;99.90;;;;;;5026645;28;20053;-63
2022/09/03 00:22:33;;;;;;;5.60;0.70;;;17.50;99.90;;;;;;5030049;28;20119;-63
2022/09/03 00:25:02;;;;;;;4.03;0.68;;;17.40;99.90;;;;;;5025664;28;20119;-63
2022/09/03 00:27:32;;;;;;;2.25;0.63;;;17.30;99.90;;;;;;5037637;28;20049;-63
2022/09/03 00:30:04;;;;;;;2.78;0.90;;;17.50;99.90;;;;;;5024514;28;20049;-63
2022/09/03 00:32:38;;;;;;;1.63;0.50;;;17.30;99.90;;;;;;5035892;28;20052;-63
2022/09/03 00:35:08;;;;;;;4.18;0.82;;;17.20;99.90;;;;;;5027669;28;20041;-63
2022/09/03 00:37:34;;;;;;;3.92;0.80;;;16.90;99.90;;;;;;5033432;28;20040;-63
2022/09/03 00:40:01;;;;;;;3.33;0.98;;;17.30;99.90;;;;;;5033498;28;20129;-63
2022/09/03 00:42:46;;;;;;;2.90;0.65;;;17.20;99.90;;;;;;5008367;28;20044;-63
2022/09/03 00:45:37;;;;;;;1.80;0.70;;;17.10;99.90;;;;;;5026387;28;20124;-63
2022/09/03 00:48:15;;;;;;;1.85;0.50;;;17.10;99.90;;;;;;5037737;28;20094;-64
2022/09/03 00:51:08;;;;;;;4.43;0.60;;;17.00;99.90;;;;;;5030606;28;20048;-63
2022/09/03 00:53:50;;;;;;;1.92;0.60;;;17.00;99.90;;;;;;5033815;28;20517;-63
2022/09/03 00:56:30;;;;;;;3.70;0.70;;;17.00;99.90;;;;;;5026992;28;20387;-63
2022/09/03 00:59:27;;;;;;;4.03;0.60;;;16.90;99.90;;;;;;5047513;28;20037;-63
2022/09/03 01:02:10;;;;;;;3.20;0.70;;;16.80;99.90;;;;;;5046003;28;20051;-64
2022/09/03 01:05:10;;;;;;;4.15;0.60;;;16.80;99.90;;;;;;5020663;28;20056;-63
2022/09/03 01:07:38;;;;;;;7.50;0.80;;;16.70;99.90;;;;;;5025238;28;20041;-63
2022/09/03 01:10:24;;;;;;;2.05;0.70;;;16.90;99.90;;;;;;5025073;28;20045;-64
2022/09/03 01:12:56;;;;;;;2.45;0.60;;;17.00;99.90;;;;;;5051949;28;20029;-63
2022/09/03 01:15:56;;;;;;;1.20;0.50;;;16.90;99.90;;;;;;5053260;28;20052;-63
2022/09/03 01:18:36;;;;;;;0.88;0.57;;;16.90;99.90;;;;;;5029095;28;20403;-63
2022/09/03 01:21:33;;;;;;;3.28;0.82;;;16.90;99.90;;;;;;5052950;28;20123;-63
2022/09/03 01:24:31;;;;;;;3.28;0.70;;;16.70;99.90;;;;;;5022831;28;20041;-63
2022/09/03 01:27:20;;;;;;;1.58;0.50;;;16.80;99.90;;;;;;5004314;28;20053;-63
2022/09/03 01:30:04;;;;;;;2.65;0.80;;;16.80;99.90;;;;;;5032828;28;20376;-64
2022/09/03 01:32:53;;;;;;;4.63;0.60;;;16.90;99.90;;;;;;5022482;28;20049;-63
2022/09/03 01:35:42;;;;;;;2.78;0.52;;;16.90;99.90;;;;;;5040382;28;20117;-63
2022/09/03 01:38:35;;;;;;;1.63;0.80;;;16.70;99.90;;;;;;5052867;28;20037;-63
2022/09/03 01:44:20;;;;;;;1.88;0.50;;;16.70;99.90;;;;;;5025468;28;20045;-64
2022/09/03 01:46:49;;;;;;;5.18;1.15;;;16.70;99.90;;;;;;5034611;28;20036;-63
2022/09/03 01:49:35;;;;;;;1.30;0.50;;;16.60;99.90;;;;;;5052435;28;20518;-63
2022/09/03 01:52:04;;;;;;;;;;;16.70;99.90;;;;;;5021131;28;20106;-64
2022/09/03 01:55:08;;;;;;;1.83;0.70;;;16.90;99.90;;;;;;5034877;28;19924;-63
2022/09/03 01:57:44;;;;;;;2.78;0.60;;;16.70;99.90;;;;;;5020406;28;20045;-63
2022/09/03 02:00:19;;;;;;;2.22;0.60;;;16.60;99.90;;;;;;5029921;28;20048;-63
2022/09/03 02:02:47;;;;;;;1.17;0.70;;;16.60;99.90;;;;;;5052383;28;20064;-64
2022/09/03 02:05:26;;;;;;;3.17;0.80;;;16.90;99.90;;;;;;5033816;28;20044;-63
2022/09/03 02:07:57;;;;;;;2.35;0.70;;;16.70;99.90;;;;;;5014701;28;20041;-63
2022/09/03 02:10:31;;;;;;;1.67;0.40;;;16.70;99.90;;;;;;5047779;28;20041;-63
2022/09/03 02:13:03;;;;;;;1.98;0.65;;;16.90;99.90;;;;;;5052601;28;20041;-63
2022/09/03 02:15:31;;;;;;;3.70;0.80;;;16.70;99.90;;;;;;5034500;28;20041;-63
2022/09/03 02:18:01;;;;;;;1.30;0.55;;;16.60;99.90;;;;;;5037493;28;20049;-63
2022/09/03 02:20:28;;;;;;;1.50;0.63;;;16.70;99.90;;;;;;5056299;28;20394;-63
2022/09/03 02:22:56;;;;;;;1.65;0.50;;;16.80;99.90;;;;;;5056474;28;20033;-63
2022/09/03 02:25:28;;;;;;;4.30;0.70;;;16.70;99.90;;;;;;5038353;28;20049;-63
2022/09/03 02:27:54;;;;;;;0.80;0.52;;;16.80;99.90;;;;;;5056060;28;20112;-63
2022/09/03 02:30:20;;;;;;;1.70;0.65;;;16.60;99.90;;;;;;5055949;28;20470;-63
2022/09/03 02:32:46;;;;;;;1.85;0.70;;;16.70;99.90;;;;;;5038274;28;20394;-63
2022/09/03 02:35:11;;;;;;;0.75;0.50;;;16.70;99.90;;;;;;5037991;28;20128;-63
2022/09/03 02:37:37;;;;;;;3.40;0.60;;;16.70;99.90;;;;;;5037985;28;20068;-63
2022/09/03 02:40:08;;;;;;;0.90;0.60;;;16.70;99.90;;;;;;5048536;28;20029;-63
2022/09/03 02:42:34;;;;;;;3.15;0.70;;;16.70;99.90;;;;;;5032379;28;20438;-63
2022/09/03 02:45:20;;;;;;;2.42;0.50;;;16.70;99.90;;;;;;5031580;28;20033;-64
2022/09/03 02:47:50;;;;;;;2.30;0.55;;;16.70;99.90;;;;;;5050713;28;20045;-63
2022/09/03 02:50:16;;;;;;;1.27;0.50;;;16.90;99.90;;;;;;5030208;28;20045;-63
2022/09/03 02:52:41;;;;;;;3.72;0.50;;;16.60;99.90;;;;;;5018216;28;20053;-63
2022/09/03 02:55:07;;;;;;;0.70;0.57;;;16.50;99.90;;;;;;5033494;28;20045;-63
2022/09/03 02:57:33;;;;;;;3.72;0.95;;;16.50;99.90;;;;;;5048159;28;20399;-63
2022/09/03 02:59:58;;;;;;;2.25;0.63;;;16.60;99.90;;;;;;5049107;28;20036;-63
2022/09/03 03:02:24;;;;;;;0.93;0.70;;;16.40;99.90;;;;;;5035484;28;20096;-63
2022/09/03 03:04:50;;;;;;;2.50;0.73;;;16.70;99.90;;;;;;5017964;28;20041;-63
2022/09/03 03:07:15;;;;;;;2.55;0.60;;;16.60;99.90;;;;;;5021015;28;20482;-63
2022/09/03 03:09:41;;;;;;;1.38;0.47;;;16.50;99.90;;;;;;5055339;28;20044;-64
2022/09/03 03:12:08;;;;;;;1.15;0.40;;;16.60;99.90;;;;;;5055338;28;20047;-63
2022/09/03 03:14:34;;;;;;;2.30;1.02;;;16.60;99.90;;;;;;5037721;28;20049;-64
2022/09/03 03:17:00;;;;;;;1.05;0.55;;;16.40;99.90;;;;;;5055121;28;20048;-63
2022/09/03 03:19:25;;;;;;;1.38;0.63;;;16.40;99.90;;;;;;5031565;28;20038;-63
2022/09/03 03:21:51;;;;;;;2.75;0.75;;;16.60;99.90;;;;;;5029232;28;20094;-63
2022/09/03 03:24:16;;;;;;;1.40;0.60;;;16.70;99.90;;;;;;5040927;28;20482;-63
2022/09/03 03:26:42;;;;;;;2.63;0.57;;;16.70;99.90;;;;;;5055294;28;20041;-63
2022/09/03 03:29:14;;;;;;;3.95;0.60;;;16.60;99.90;;;;;;5018017;28;20045;-63
2022/09/03 03:31:39;;;;;;;4.05;0.57;;;16.50;99.90;;;;;;5043192;28;20123;-63
2022/09/03 03:34:05;;;;;;;0.75;0.45;;;16.50;99.90;;;;;;5036953;28;20122;-63
2022/09/03 03:36:32;;;;;;;2.65;0.77;;;16.40;99.90;;;;;;5055270;28;20041;-63
2022/09/03 03:38:59;;;;;;;1.75;0.55;;;16.50;99.90;;;;;;5054887;28;20037;-63
2022/09/03 03:41:31;;;;;;;0.70;0.50;;;16.50;99.90;;;;;;5040641;28;20542;-63
2022/09/03 03:43:59;;;;;;;2.28;0.70;;;16.50;99.90;;;;;;5055142;28;20040;-63
2022/09/03 03:46:27;;;;;;;1.45;0.80;;;16.40;99.90;;;;;;5043215;28;20041;-63
2022/09/03 03:48:53;;;;;;;2.50;0.60;;;16.60;99.90;;;;;;5016898;28;20531;-63
2022/09/03 03:51:19;;;;;;;1.08;0.52;;;16.70;99.90;;;;;;5034639;28;20041;-63
2022/09/03 03:53:45;;;;;;;2.25;0.60;;;16.70;99.90;;;;;;5052678;28;20396;-63
2022/09/03 03:56:13;;;;;;;2.50;0.60;;;16.60;99.90;;;;;;5019127;28;20041;-63
2022/09/03 03:58:42;;;;;;;1.65;0.70;;;16.60;99.90;;;;;;5034522;28;20044;-63
2022/09/03 04:01:17;;;;;;;2.30;0.68;;;16.70;99.90;;;;;;5011273;28;20065;-63
2022/09/03 04:03:44;;;;;;;0.95;0.73;;;16.60;99.90;;;;;;5017854;28;20507;-63
2022/09/03 04:06:12;;;;;;;2.08;0.50;;;16.50;99.90;;;;;;5024283;28;20033;-63
2022/09/03 04:08:39;;;;;;;1.27;0.70;;;16.50;99.90;;;;;;4999580;28;20082;-64
2022/09/03 04:11:08;;;;;;;1.10;0.40;;;16.60;99.90;;;;;;5032917;28;20033;-64
2022/09/03 04:13:39;;;;;;;1.05;0.65;;;16.40;99.90;;;;;;5034102;28;20545;-63
2022/09/03 04:16:20;;;;;;;1.58;0.55;;;16.50;99.90;;;;;;5030555;28;20395;-63
2022/09/03 04:18:48;;;;;;;2.38;0.65;;;;;;;;;;5033880;28;20144;-63
2022/09/03 04:21:16;;;;;;;3.30;0.70;;;16.40;99.90;;;;;;5033502;28;20116;-65
2022/09/03 04:23:44;;;;;;;1.33;0.40;;;16.60;99.90;;;;;;5033457;28;20523;-65
2022/09/03 04:26:14;;;;;;;1.35;0.60;;;16.30;99.90;;;;;;5032945;28;20392;-64
2022/09/03 04:28:40;;;;;;;3.80;0.70;;;16.40;99.90;;;;;;5033751;28;20404;-64
2022/09/03 04:31:09;;;;;;;2.10;0.90;;;16.40;99.90;;;;;;5031232;28;20041;-64
2022/09/03 04:33:36;;;;;;;6.38;0.93;;;16.30;99.90;;;;;;5014996;28;20041;-64
2022/09/03 04:36:09;;;;;;;2.85;0.60;;;16.40;99.90;;;;;;4999629;28;20576;-64
2022/09/03 04:38:38;;;;;;;3.13;0.88;;;16.20;99.90;;;;;;5017088;28;20049;-64
2022/09/03 04:41:05;;;;;;;1.60;0.77;;;16.30;99.90;;;;;;5019716;28;20041;-64
2022/09/03 04:43:31;;;;;;;1.20;0.50;;;16.20;99.90;;;;;;5033786;28;20123;-64
2022/09/03 04:45:58;;;;;;;3.50;0.80;;;16.00;99.90;;;;;;5015950;28;20097;-63
2022/09/03 04:48:25;;;;;;;3.45;0.60;;;16.20;99.90;;;;;;5033559;28;20049;-64
2022/09/03 04:50:50;;;;;;;3.42;0.60;;;16.00;99.90;;;;;;5016170;28;20042;-64
2022/09/03 04:53:16;;;;;;;2.45;0.95;;;15.90;99.90;;;;;;5029551;28;20509;-63
2022/09/03 04:55:41;;;;;;;0.93;0.55;;;16.00;99.90;;;;;;5015718;28;20124;-64
2022/09/03 04:58:07;;;;;;;1.33;0.57;;;16.10;99.90;;;;;;5033619;28;20438;-64
2022/09/03 05:00:34;;;;;;;0.77;0.65;;;16.00;99.90;;;;;;5015681;28;20466;-64
2022/09/03 05:03:00;;;;;;;3.03;0.68;;;15.90;99.90;;;;;;5033258;28;20045;-64
2022/09/03 05:05:26;;;;;;;3.03;0.88;;;16.20;99.90;;;;;;5017635;28;20048;-64
2022/09/03 05:07:52;;;;;;;2.15;1.27;;;16.00;99.90;;;;;;5046604;28;20049;-64
2022/09/03 05:10:21;;;;;;;2.88;0.80;;;15.90;99.90;;;;;;5035207;28;20049;-64
2022/09/03 05:12:48;;;;;;;2.40;0.70;;;16.00;99.90;;;;;;5046369;28;20049;-64
2022/09/03 05:15:14;;;;;;;2.88;0.88;;;16.00;99.90;;;;;;5033398;28;20080;-64
2022/09/03 05:17:40;;;;;;;5.72;1.33;;;15.90;99.90;;;;;;5029107;28;20073;-64
2022/09/03 05:20:07;;;;;;;1.13;0.50;;;15.90;99.90;;;;;;5044188;28;20060;-64
2022/09/03 05:22:33;;;;;;;1.20;0.60;;;16.00;99.90;;;;;;5035703;28;20407;-64
2022/09/03 05:24:59;;;;;;;5.25;1.10;;;16.00;99.90;;;;;;5033155;28;20033;-64
2022/09/03 05:27:25;;;;;;;5.63;0.90;;;15.80;99.90;;;;;;5034479;28;20045;-64
2022/09/03 05:29:50;;;;;;;2.45;0.85;;;15.80;99.90;;;;;;5052954;28;20041;-64
2022/09/03 05:32:16;;;;;;;2.08;0.80;;;15.80;99.90;;;;;;5039209;28;20499;-64
2022/09/03 05:34:42;;;;;;;4.35;0.75;;;15.70;99.90;;;;;;5032918;28;20041;-64
2022/09/03 05:37:08;;;;;;;1.38;0.73;;;16.00;99.90;;;;;;5032654;28;20113;-64
2022/09/03 05:39:33;;;;;;;2.97;0.95;;;16.00;99.90;;;;;;5036561;28;20608;-64
2022/09/03 05:41:59;;;;;;;3.25;0.88;;;15.90;99.90;;;;;;5052542;28;20029;-64
2022/09/03 05:44:25;;;;;;;6.15;1.10;;;15.90;99.90;;;;;;5050406;28;20041;-64
2022/09/03 05:46:50;;;;;;;4.20;0.80;;;16.00;99.90;;;;;;5015438;28;20067;-64
2022/09/03 05:49:16;;;;;;;4.70;1.10;;;15.90;99.90;;;;;;5015277;28;20045;-64
2022/09/03 05:51:42;;;;;;;2.75;0.70;;;15.80;99.90;;;;;;5015933;28;20073;-64
2022/09/03 05:54:09;;;;;;;1.70;0.98;;;15.80;99.90;;;;;;5037105;28;20037;-64
2022/09/03 05:56:38;;;;;;;2.25;0.98;;;16.00;99.90;;;;;;5032413;28;20394;-64
2022/09/03 05:59:08;;;;;;;2.63;1.27;;;16.10;99.90;;;;;;5005526;28;20060;-64
2022/09/03 06:01:36;;;;;;;1.50;0.82;;;16.00;99.90;;;;;;5018919;28;20041;-63
2022/09/03 06:04:07;;;;;;;2.55;1.05;;;16.10;99.90;;;;;;5023742;28;20415;-64
2022/09/03 06:06:35;;;;;;;1.50;0.70;;;16.20;99.90;;;;;;5052616;28;20041;-64
2022/09/03 06:09:03;;;;;;;2.17;0.70;;;16.10;99.90;;;;;;5022662;28;20068;-64
2022/09/03 06:11:31;;;;;;;3.20;1.20;;;16.10;99.90;;;;;;5046262;28;20057;-64
2022/09/03 06:14:01;;;;;;;3.30;1.00;;;16.00;99.90;;;;;;5032879;28;20049;-64
2022/09/03 06:16:28;;;;;;;2.53;0.88;;;16.20;99.90;;;;;;5036499;28;20037;-64
2022/09/03 06:18:54;;;;;;;3.72;0.73;;;16.20;99.90;;;;;;5051613;28;20482;-64
2022/09/03 06:21:20;;;;;;;3.00;0.82;;;16.30;99.90;;;;;;5048998;28;20030;-64
2022/09/03 06:23:50;;;;;;;2.58;0.88;;;16.40;99.90;;;;;;5049799;28;20041;-64
2022/09/03 06:26:17;;;;;;;2.13;0.90;;;16.40;99.90;;;;;;5032347;28;20041;-64
2022/09/03 06:28:43;;;;;;;4.22;1.08;;;16.50;99.90;;;;;;5036558;28;20041;-64
2022/09/03 06:31:11;;;;;;;2.63;1.08;;;16.60;99.90;;;;;;5040315;28;20101;-64
2022/09/03 06:33:38;;;;;;;1.42;0.77;;;16.70;99.90;;;;;;5045785;28;20049;-63
2022/09/03 06:36:06;;;;;;;4.30;0.77;;;16.80;99.90;;;;;;5021138;28;20049;-64
2022/09/03 06:38:36;;;;;;;4.68;0.80;;;17.00;99.90;;;;;;5056193;28;20051;-64
2022/09/03 06:41:20;;;;;;;2.63;0.90;;;17.10;99.90;;;;;;5022708;28;20120;-64
2022/09/03 06:43:47;;;;;;;3.78;1.00;;;17.20;99.90;;;;;;5002057;28;20052;-64
2022/09/03 06:46:18;;;;;;;1.42;0.70;;;17.50;99.90;;;;;;5001959;28;20041;-64
2022/09/03 06:48:45;;;;;;;2.80;0.65;;;17.60;99.90;;;;;;5036071;28;20044;-64
2022/09/03 06:51:19;;;;;;;1.40;0.70;;;17.50;99.90;;;;;;5039969;28;20041;-64
2022/09/03 06:53:47;;;;;;;4.47;1.25;;;17.40;99.90;;;;;;5040076;28;20036;-64
2022/09/03 06:56:15;;;;;;;3.35;0.93;;;17.70;99.90;;;;;;5055945;28;20388;-64
2022/09/03 06:58:50;;;;;;;3.65;0.90;;;17.70;99.90;;;;;;5037660;28;20625;-64
2022/09/03 07:01:22;;;;;;;2.83;1.38;;;17.80;99.90;;;;;;5045354;28;20037;-64
2022/09/03 07:03:56;;;;;;;9.10;1.48;;;17.60;99.90;;;;;;5017394;28;20049;-64
2022/09/03 07:06:24;;;;;;;6.05;0.70;;;17.90;99.90;;;;;;5036495;28;20041;-64
2022/09/03 07:08:50;;;;;;;1.70;0.82;;;18.00;99.90;;;;;;5041278;28;20042;-64
2022/09/03 07:11:18;;;;;;;3.28;0.90;;;18.00;99.90;;;;;;5055607;28;20055;-63
2022/09/03 07:13:46;;;;;;;4.95;0.90;;;17.90;99.90;;;;;;5040606;28;20033;-64
2022/09/03 07:16:13;;;;;;;2.05;0.90;;;18.20;99.90;;;;;;5035654;28;20085;-64
2022/09/03 07:18:39;;;;;;;4.60;1.08;;;18.30;99.90;;;;;;5017614;28;20045;-64
2022/09/03 07:21:11;;;;;;;2.40;1.00;;;18.60;99.90;;;;;;5036720;28;20037;-64
2022/09/03 07:23:38;;;;;;;5.82;1.00;;;18.40;99.90;;;;;;5055219;28;20041;-64
2022/09/03 07:26:06;;;;;;;2.95;0.80;;;18.40;99.90;;;;;;5051037;28;20090;-64
2022/09/03 07:28:35;;;;;;;1.65;0.85;;;18.30;99.90;;;;;;5035202;28;20507;-64
2022/09/03 07:31:07;;;;;;;1.95;0.90;;;18.50;99.90;;;;;;5035239;28;20037;-64
2022/09/03 07:33:33;;;;;;;2.15;0.70;;;18.50;99.90;;;;;;5035165;28;20033;-64
2022/09/03 07:36:08;;;;;;;7.47;1.00;;;18.20;99.90;;;;;;5017498;28;20495;-63
2022/09/03 07:38:35;;;;;;;4.88;0.95;;;18.80;99.90;;;;;;5034895;28;20506;-64
2022/09/03 07:41:03;;;;;;;3.78;0.90;;;18.60;99.90;;;;;;5031086;28;20116;-64
2022/09/03 07:43:34;;;;;;;4.43;0.88;;;18.70;99.90;;;;;;5024847;28;20041;-64
2022/09/03 07:46:00;;;;;;;2.47;0.80;;;18.60;99.90;;;;;;5040428;28;20123;-64
2022/09/03 07:48:26;;;;;;;4.90;1.00;;;18.80;99.90;;;;;;5034831;28;20484;-64
2022/09/03 07:50:52;;;;;;;2.92;0.95;;;18.80;99.90;;;;;;5034582;28;20048;-64
2022/09/03 07:53:21;;;;;;;2.92;0.80;;;18.90;99.90;;;;;;5017487;28;20399;-64
2022/09/03 07:55:48;;;;;;;3.08;0.77;;;18.90;99.90;;;;;;5029864;28;20049;-64
2022/09/03 07:58:13;;;;;;;1.35;0.68;;;18.90;99.90;;;;;;5029868;28;20055;-64
2022/09/03 08:00:39;;;;;;;3.15;0.80;;;18.90;99.90;;;;;;5036623;28;20033;-64
2022/09/03 08:03:07;;;;;;;1.55;0.70;;;19.00;99.90;;;;;;5043469;28;20132;-64
2022/09/03 08:05:35;;;;;;;4.57;0.82;;;19.00;99.90;;;;;;5037808;28;20124;-64
2022/09/03 08:08:02;;;;;;;2.33;0.80;;;19.00;99.90;;;;;;5022138;28;20506;-64
2022/09/03 08:10:29;;;;;;;4.28;1.52;;;19.30;99.90;;;;;;5034693;28;20042;-64
2022/09/03 08:12:56;;;;;;;2.17;0.88;;;19.30;99.90;;;;;;5016903;28;20049;-64
2022/09/03 08:15:22;;;;;;;5.03;1.05;;;19.30;99.90;;;;;;5033621;28;20080;-64
2022/09/03 08:17:48;;;;;;;5.03;0.73;;;19.50;99.90;;;;;;5034233;28;20041;-64
2022/09/03 08:20:14;;;;;;;2.90;0.80;;;19.30;99.90;;;;;;5028899;28;20037;-65
2022/09/03 08:22:40;;;;;;;1.70;0.80;;;19.60;99.90;;;;;;5035906;28;20109;-64
2022/09/03 08:25:06;;;;;;;3.42;0.90;;;19.50;99.90;;;;;;5034288;28;20076;-64
2022/09/03 08:27:32;;;;;;;1.30;0.80;;;19.50;99.90;;;;;;5036688;28;20048;-64
2022/09/03 08:29:57;;;;;;;2.15;0.70;;;19.70;99.90;;;;;;5028280;28;20045;-64
2022/09/03 08:32:23;;;;;;;5.15;0.77;;;19.50;99.90;;;;;;5034289;28;20102;-63
2022/09/03 08:34:51;;;;;;;6.20;1.25;;;19.70;99.90;;;;;;5036315;28;20438;-64
2022/09/03 08:37:17;;;;;;;2.20;1.27;;;19.80;99.90;;;;;;5054071;28;20044;-64
2022/09/03 08:39:43;;;;;;;1.00;0.68;;;20.00;99.90;;;;;;5049198;28;20490;-64
2022/09/03 08:42:30;;;;;;;2.65;0.60;;;20.10;99.90;;;;;;5044903;28;20101;-64
2022/09/03 08:45:08;;;;;;;1.67;0.60;;;20.10;99.90;;;;;;5036021;28;20069;-64
2022/09/03 08:47:42;;;;;;;2.10;0.70;;;20.00;99.90;;;;;;5040750;28;20054;-64
2022/09/03 08:50:22;;;;;;;2.73;0.80;;;20.10;99.90;;;;;;5020950;28;20044;-64
2022/09/03 08:52:58;;;;;;;5.53;1.10;;;20.30;99.90;;;;;;5044635;28;20111;-64
2022/09/03 08:55:41;;;;;;;4.05;0.60;;;20.20;99.90;;;;;;5018637;28;20041;-64
2022/09/03 08:58:28;;;;;;;6.47;1.00;;;20.50;99.90;;;;;;5046061;28;20106;-64
2022/09/03 09:01:20;;;;;;;4.75;0.85;;;20.50;99.90;;;;;;5028558;28;20041;-64
2022/09/03 09:04:01;;;;;;;3.63;0.77;;;20.70;99.90;;;;;;5039482;28;20053;-63
2022/09/03 09:07:03;;;;;;;2.72;0.98;;;20.70;99.90;;;;;;5026492;28;20037;-64
2022/09/03 09:09:57;;;;;;;3.20;0.75;;;20.90;99.90;;;;;;5003993;28;20108;-64
2022/09/03 09:12:44;;;;;;;4.68;0.55;;;21.30;99.90;;;;;;5015583;28;20470;-64
2022/09/03 09:15:31;;;;;;;3.42;0.70;;;21.10;99.90;;;;;;5015856;28;20053;-64
2022/09/03 09:18:29;;;;;;;2.22;0.73;;;21.30;99.90;;;;;;5033314;28;20053;-64
2022/09/03 09:21:34;;;;;;;3.33;0.60;;;21.30;99.90;;;;;;5047546;28;20488;-64
2022/09/03 09:24:02;;;;;;;;;;;21.60;99.90;;;;;;5030153;28;20045;-64
2022/09/03 09:26:28;;;;;;;4.05;1.30;;;21.80;99.90;;;;;;5033481;28;19917;-64
2022/09/03 09:29:05;;;;;;;1.40;0.50;;;22.20;99.90;;;;;;5046696;28;20091;-64
2022/09/03 09:31:31;;;;;;;3.55;0.60;;;22.10;99.90;;;;;;5010765;28;20045;-64
2022/09/03 09:34:07;;;;;;;2.55;0.60;;;22.20;99.90;;;;;;5035654;28;20095;-64
2022/09/03 09:36:50;;;;;;;2.78;0.70;;;23.60;99.90;;;;;;5020377;28;20037;-64
2022/09/03 09:39:16;;;;;;;5.10;0.85;;;22.70;99.90;;;;;;5047232;28;20041;-64
2022/09/03 09:41:45;;;;;;;3.97;0.90;;;22.90;99.90;;;;;;5032980;28;20045;-65
2022/09/03 09:44:19;;;;;;;3.92;0.60;;;22.70;99.90;;;;;;5046839;28;20033;-64
2022/09/03 09:46:45;;;;;;;9.07;0.85;;;22.90;99.90;;;;;;5009210;28;20554;-64
2022/09/03 09:49:34;;;;;;;3.50;0.80;;;23.10;99.90;;;;;;5053233;28;20080;-64
2022/09/03 09:52:15;;;;;;;2.45;0.60;;;23.10;99.90;;;;;;5013203;28;20044;-64
2022/09/03 09:54:42;;;;;;;2.25;0.40;;;23.40;99.90;;;;;;5033145;28;20488;-64
2022/09/03 09:57:19;;;;;;;4.75;0.52;;;23.60;99.90;;;;;;5015412;28;20095;-64
2022/09/03 09:59:45;;;;;;;2.08;0.68;;;23.70;99.90;;;;;;5033185;28;20042;-64
2022/09/03 10:02:14;;;;;;;3.13;0.40;;;23.70;99.90;;;;;;5032792;28;20049;-64
2022/09/03 10:04:42;;;;;;;1.85;0.50;;;23.70;99.90;;;;;;5015157;28;20041;-64
2022/09/03 10:07:29;;;;;;;2.78;0.70;;;23.80;99.90;;;;;;5037826;28;20055;-64
2022/09/03 10:10:14;;;;;;;6.30;1.42;;;23.80;99.90;;;;;;5044644;28;20414;-64
2022/09/03 10:13:00;;;;;;;2.10;0.47;;;23.90;99.90;;;;;;5025130;28;20076;-64
2022/09/03 10:15:45;;;;;;;1.73;0.50;;;23.80;99.90;;;;;;5052604;28;20061;-64
2022/09/03 10:18:26;;;;;;;0.80;0.35;;;23.90;99.90;;;;;;5025721;28;20500;-64
2022/09/03 10:21:09;;;;;;;1.50;0.40;;;23.70;99.60;;;;;;5032676;28;20033;-64
2022/09/03 10:24:03;;;;;;;3.47;0.75;;;24.10;99.90;;;;;;5032800;28;20519;-64
2022/09/03 10:26:29;;;;;;;3.75;0.50;;;23.80;99.00;;;;;;5020885;28;20075;-64
2022/09/03 10:28:59;;;;;;;3.15;0.60;;;23.70;99.80;;;;;;5015185;28;20076;-64
2022/09/03 10:32:01;;;;;;;3.08;0.57;;;24.00;99.80;;;;;;5019168;28;20043;-64
2022/09/03 10:34:48;;;;;;;5.82;0.40;;;23.80;99.20;;;;;;5032677;28;20080;-64
2022/09/03 10:37:34;;;;;;;1.05;0.40;;;23.70;99.40;;;;;;5032901;28;20048;-64
2022/09/03 10:40:30;;;;;;;3.22;0.47;;;23.90;98.90;;;;;;5030657;28;20107;-64
2022/09/03 10:43:15;;;;;;;1.30;0.38;;;24.00;99.10;;;;;;5021196;28;20048;-64
2022/09/03 10:45:54;;;;;;;1.80;0.60;;;23.90;99.20;;;;;;5018712;28;20403;-64
2022/09/03 10:48:37;;;;;;;2.47;0.57;;;23.90;99.10;;;;;;5036107;28;20116;-63
2022/09/03 10:51:26;;;;;;;3.90;0.47;;;23.80;99.30;;;;;;5022282;28;20487;-64
2022/09/03 10:54:02;;;;;;;3.38;0.45;;;23.80;98.60;;;;;;5041263;28;20166;-64
2022/09/03 10:56:56;;;;;;;5.18;0.40;;;23.90;98.50;;;;;;5043285;28;20049;-64
2022/09/03 11:00:00;;;;;;;3.05;0.55;;;23.90;98.00;;;;;;5035958;28;20121;-65
2022/09/03 11:02:52;;;;;;;5.00;0.50;;;24.10;98.10;;;;;;5041194;28;20080;-65
2022/09/03 11:05:37;;;;;;;3.13;0.40;;;24.00;97.60;;;;;;5040144;28;20038;-65
2022/09/03 11:08:11;;;;;;;1.67;0.43;;;24.10;97.30;;;;;;5035828;28;20076;-65
2022/09/03 11:10:45;;;;;;;2.78;0.40;;;24.30;98.50;;;;;;5021008;28;20045;-64
2022/09/03 11:13:23;;;;;;;2.13;0.40;;;24.10;97.90;;;;;;5045545;28;20037;-64
2022/09/03 11:16:05;;;;;;;3.78;0.40;;;24.10;97.70;;;;;;5049554;28;20414;-66
2022/09/03 11:18:39;;;;;;;3.92;0.45;;;24.20;98.20;;;;;;5035688;28;20042;-64
2022/09/03 11:21:10;;;;;;;3.08;0.50;;;24.50;97.80;;;;;;5017921;28;20113;-64
2022/09/03 11:23:45;;;;;;;1.80;0.40;;;24.30;97.40;;;;;;5035455;28;20172;-64
2022/09/03 11:26:16;;;;;;;1.33;0.38;;;24.20;97.00;;;;;;5014921;28;20041;-64
2022/09/03 11:28:54;;;;;;;1.65;0.70;;;24.30;97.90;;;;;;5017679;28;20038;-64
2022/09/03 11:31:33;;;;;;;2.10;0.82;;;24.40;96.50;;;;;;5054849;28;20036;-64
2022/09/03 11:34:05;;;;;;;2.60;0.47;;;24.40;96.60;;;;;;5024035;28;20569;-64
2022/09/03 11:36:34;;;;;;;3.38;0.40;;;24.30;97.10;;;;;;5028250;28;20040;-64
2022/09/03 11:39:11;;;;;;;5.47;0.77;;;24.20;97.60;;;;;;5037107;28;20463;-64
2022/09/03 11:41:36;;;;;;;3.28;0.50;;;24.40;97.00;;;;;;5021688;28;20049;-64
2022/09/03 11:44:18;;;;;;;1.27;0.43;;;24.40;96.30;;;;;;5017367;28;20046;-64
2022/09/03 11:46:55;;;;;;;3.83;0.40;;;24.60;96.30;;;;;;5021479;28;20036;-64
2022/09/03 11:49:34;;;;;;;3.45;0.43;;;24.40;96.90;;;;;;5033908;28;20041;-64
2022/09/03 11:52:08;;;;;;;0.90;0.30;;;24.40;96.40;;;;;;5014846;28;20400;-65
2022/09/03 11:54:44;;;;;;;;;;;24.50;95.80;;;;;;5028379;28;20052;-65
2022/09/03 11:57:14;;;;;;;;;;;24.40;96.10;;;;;;5050822;28;19917;-64
2022/09/03 11:59:42;;;;;;;1.65;0.40;;;24.70;96.10;;;;;;5000504;28;19973;-64
2022/09/03 12:02:11;;;;;;;4.15;0.85;;;24.40;96.20;;;;;;5048559;28;20049;-65
2022/09/03 12:05:12;;;;;;;3.75;0.40;;;24.70;96.50;;;;;;5016935;28;20124;-64
2022/09/03 12:07:44;;;;;;;1.30;0.35;;;24.70;95.40;;;;;;5016483;28;20045;-64
2022/09/03 12:10:49;;;;;;;2.25;0.47;;;24.70;96.30;;;;;;5016663;28;20049;-64
2022/09/03 12:13:19;;;;;;;1.10;0.40;;;24.40;95.60;;;;;;5025510;28;20042;-64
2022/09/03 12:16:06;;;;;;;2.63;0.40;;;24.60;96.30;;;;;;5051642;28;20068;-65
2022/09/03 12:18:34;;;;;;;6.13;0.40;;;24.70;95.60;;;;;;5024357;28;20124;-65
2022/09/03 12:21:05;;;;;;;3.17;0.50;;;24.70;96.00;;;;;;5020889;28;20072;-64
2022/09/03 12:23:44;;;;;;;3.03;0.40;;;24.50;96.00;;;;;;5036583;28;20479;-64
2022/09/03 12:26:23;;;;;;;1.85;0.65;;;24.80;95.20;;;;;;5034976;28;20033;-63
2022/09/03 12:28:57;;;;;;;3.72;0.43;;;24.60;95.40;;;;;;5016349;28;20120;-64
2022/09/03 12:31:24;;;;;;;1.23;0.50;;;24.60;95.90;;;;;;5002692;28;20046;-65
2022/09/03 12:33:58;;;;;;;1.33;0.60;;;24.90;95.70;;;;;;5016328;28;20080;-64
2022/09/03 12:36:25;;;;;;;2.13;0.30;;;26.50;96.40;;;;;;5029933;28;20049;-64
2022/09/03 12:38:51;;;;;;;2.45;0.40;;;24.60;95.30;;;;;;5027522;28;20491;-64
2022/09/03 12:41:29;;;;;;;1.63;0.40;;;24.80;95.80;;;;;;5036026;28;20052;-64
2022/09/03 12:43:58;;;;;;;0.98;0.30;;;24.80;95.90;;;;;;5034140;28;20045;-65
2022/09/03 12:46:32;;;;;;;2.72;0.40;;;24.90;95.40;;;;;;5015982;28;20141;-64
2022/09/03 12:49:04;;;;;;;2.87;0.40;;;24.90;95.20;;;;;;5016079;28;20060;-64
2022/09/03 12:51:39;;;;;;;3.03;0.60;;;24.80;95.40;;;;;;5033649;28;20045;-64
2022/09/03 12:54:14;;;;;;;3.85;0.30;;;25.00;95.70;;;;;;5033734;28;20052;-64
2022/09/03 12:56:44;;;;;;;4.43;0.40;;;24.70;95.30;;;;;;5033610;28;20037;-64
2022/09/03 12:59:15;;;;;;;2.45;0.98;;;24.70;95.60;;;;;;5040482;28;20068;-64
2022/09/03 13:01:51;;;;;;;3.00;0.50;;;24.90;95.60;;;;;;5053281;28;20099;-64
2022/09/03 13:04:26;;;;;;;2.20;0.40;;;25.10;95.00;;;;;;5020741;28;20053;-64
2022/09/03 13:06:59;;;;;;;2.30;0.30;;;25.10;95.20;;;;;;5015906;28;20108;-64
2022/09/03 13:09:28;;;;;;;2.55;0.50;;;25.10;94.50;;;;;;5023296;28;20075;-64
2022/09/03 13:11:55;;;;;;;2.88;0.30;;;25.00;95.20;;;;;;5035236;28;20045;-64
2022/09/03 13:14:21;;;;;;;3.45;0.30;;;24.90;95.10;;;;;;5033312;28;20037;-64
2022/09/03 13:17:22;;;;;;;2.05;0.30;;;26.40;95.30;;;;;;5033253;28;20046;-64
2022/09/03 13:20:04;;;;;;;2.40;0.30;;;25.10;94.50;;;;;;4991743;28;20053;-65
2022/09/03 13:23:03;;;;;;;3.15;0.50;;;24.90;94.70;;;;;;5047021;28;20454;-64